createdAt,value
2023-04-25T00:00:47.843Z,2.76
2023-04-25T00:02:29.183Z,2.51
2023-04-25T00:04:10.940Z,2.72
2023-04-25T00:05:52.455Z,2.72
2023-04-25T00:07:33.764Z,2.96
2023-04-25T00:09:15.043Z,2.90
2023-04-25T00:10:56.366Z,2.74
2023-04-25T00:12:37.665Z,2.75
2023-04-25T00:14:18.962Z,2.48
2023-04-25T00:16:00.265Z,2.70
2023-04-25T00:17:41.607Z,3.27
2023-04-25T00:19:22.940Z,3.69
2023-04-25T00:21:04.230Z,3.86
2023-04-25T00:22:45.563Z,3.98
2023-04-25T00:24:26.872Z,4.25
2023-04-25T00:26:08.195Z,4.37
2023-04-25T00:27:49.472Z,4.28
2023-04-25T00:29:30.772Z,4.29
2023-04-25T00:31:12.055Z,4.19
2023-04-25T00:32:53.388Z,4.02
2023-04-25T00:34:34.682Z,4.16
2023-04-25T00:36:16.000Z,3.84
2023-04-25T00:37:57.288Z,4.18
2023-04-25T00:39:38.589Z,4.11
2023-04-25T00:41:19.857Z,4.05
2023-04-25T00:43:01.374Z,4.16
2023-04-25T00:44:42.715Z,4.36
2023-04-25T00:46:24.055Z,4.40
2023-04-25T00:48:05.490Z,4.31
2023-04-25T00:49:46.815Z,4.50
2023-04-25T00:51:28.082Z,4.44
2023-04-25T00:53:09.363Z,4.67
2023-04-25T00:54:50.701Z,4.29
2023-04-25T00:56:31.963Z,4.21
2023-04-25T00:58:13.239Z,4.16
2023-04-25T00:59:54.541Z,4.01
2023-04-25T01:01:35.832Z,4.37
2023-04-25T01:03:17.380Z,3.89
2023-04-25T01:04:58.882Z,3.30
2023-04-25T01:06:40.248Z,2.99
2023-04-25T01:08:21.585Z,2.75
2023-04-25T01:10:02.904Z,2.76
2023-04-25T01:11:44.219Z,3.18
2023-04-25T01:13:25.562Z,3.19
2023-04-25T01:15:06.877Z,3.18
2023-04-25T01:16:48.226Z,2.92
2023-04-25T01:18:29.578Z,3.06
2023-04-25T01:20:10.900Z,2.67
2023-04-25T01:21:52.224Z,2.58
2023-04-25T01:23:33.513Z,2.64
2023-04-25T01:25:14.800Z,2.57
2023-04-25T01:26:56.129Z,2.55
2023-04-25T01:28:37.440Z,2.66
2023-04-25T01:30:18.754Z,3.11
2023-04-25T01:32:00.083Z,3.03
2023-04-25T01:33:41.417Z,3.56
2023-04-25T01:35:22.705Z,3.45
2023-04-25T01:37:03.992Z,3.40
2023-04-25T01:38:45.268Z,3.40
2023-04-25T01:40:26.572Z,3.42
2023-04-25T01:42:07.864Z,3.26
2023-04-25T01:43:49.425Z,3.49
2023-04-25T01:45:30.933Z,3.46
2023-04-25T01:47:12.231Z,3.31
2023-04-25T01:48:53.499Z,2.85
2023-04-25T01:50:34.824Z,2.84
2023-04-25T01:52:16.146Z,2.94
2023-04-25T01:53:58.377Z,2.61
2023-04-25T01:55:40.601Z,2.11
2023-04-25T01:57:21.906Z,2.24
2023-04-25T01:59:03.294Z,2.15
2023-04-25T02:00:44.561Z,2.20
2023-04-25T02:02:25.974Z,2.28
2023-04-25T02:04:07.566Z,2.29
2023-04-25T02:05:49.027Z,2.27
2023-04-25T02:07:30.349Z,2.71
2023-04-25T02:09:11.651Z,2.33
2023-04-25T02:10:52.962Z,2.38
2023-04-25T02:12:34.258Z,2.46
2023-04-25T02:14:15.555Z,2.51
2023-04-25T02:15:56.912Z,2.57
2023-04-25T02:17:38.253Z,2.65
2023-04-25T02:19:19.555Z,2.35
2023-04-25T02:21:00.856Z,2.28
2023-04-25T02:22:42.137Z,2.08
2023-04-25T02:24:23.428Z,2.05
2023-04-25T02:26:04.772Z,1.87
2023-04-25T02:27:46.041Z,1.68
2023-04-25T02:29:27.340Z,1.49
2023-04-25T02:31:08.678Z,1.19
2023-04-25T02:32:50.023Z,1.10
2023-04-25T02:34:31.360Z,1.49
2023-04-25T02:36:12.646Z,1.60
2023-04-25T02:37:53.962Z,1.53
2023-04-25T02:39:35.277Z,2.05
2023-04-25T02:41:16.565Z,1.77
2023-04-25T02:42:57.819Z,1.76
2023-04-25T02:44:39.150Z,2.11
2023-04-25T02:46:32.291Z,2.68
2023-04-25T02:48:20.074Z,3.10
2023-04-25T02:50:01.428Z,3.42
2023-04-25T02:51:42.727Z,3.84
2023-04-25T02:53:24.049Z,4.14
2023-04-25T02:55:05.341Z,4.15
2023-04-25T02:56:46.611Z,3.61
2023-04-25T02:58:27.906Z,3.85
2023-04-25T03:00:09.209Z,3.98
2023-04-25T03:01:50.544Z,4.12
2023-04-25T03:03:31.817Z,4.43
2023-04-25T03:05:13.163Z,4.39
2023-04-25T03:06:54.431Z,4.58
2023-04-25T03:08:35.717Z,4.60
2023-04-25T03:10:17.091Z,4.72
2023-04-25T03:11:58.399Z,4.96
2023-04-25T03:13:39.668Z,5.17
2023-04-25T03:15:20.987Z,4.97
2023-04-25T03:17:02.366Z,5.18
2023-04-25T03:18:43.861Z,5.31
2023-04-25T03:20:25.187Z,5.40
2023-04-25T03:22:06.488Z,4.87
2023-04-25T03:23:47.852Z,4.27
2023-04-25T03:25:29.217Z,4.32
2023-04-25T03:27:10.526Z,4.63
2023-04-25T03:28:51.824Z,4.81
2023-04-25T03:30:33.093Z,5.10
2023-04-25T03:32:14.469Z,4.75
2023-04-25T03:33:55.860Z,4.76
2023-04-25T03:35:37.163Z,4.62
2023-04-25T03:37:18.465Z,4.89
2023-04-25T03:38:59.789Z,5.00
2023-04-25T03:40:41.149Z,4.99
2023-04-25T03:42:22.555Z,4.76
2023-04-25T03:44:03.851Z,4.59
2023-04-25T03:45:45.153Z,4.99
2023-04-25T03:47:26.473Z,5.24
2023-04-25T03:49:07.772Z,5.33
2023-04-25T03:50:49.087Z,4.95
2023-04-25T03:52:30.464Z,4.64
2023-04-25T03:54:11.719Z,3.40
2023-04-25T03:55:52.996Z,3.34
2023-04-25T03:57:34.280Z,3.76
2023-04-25T03:59:15.543Z,3.86
2023-04-25T04:00:56.841Z,4.21
2023-04-25T04:02:38.309Z,4.39
2023-04-25T04:04:20.056Z,4.17
2023-04-25T04:06:01.492Z,4.16
2023-04-25T04:07:42.760Z,4.14
2023-04-25T04:09:24.051Z,4.14
2023-04-25T04:11:05.346Z,4.05
2023-04-25T04:12:46.662Z,4.28
2023-04-25T04:14:27.958Z,4.52
2023-04-25T04:16:09.260Z,4.77
2023-04-25T04:17:50.667Z,4.97
2023-04-25T04:19:31.999Z,4.97
2023-04-25T04:21:13.264Z,4.83
2023-04-25T04:22:54.565Z,4.65
2023-04-25T04:24:35.874Z,4.65
2023-04-25T04:26:17.160Z,4.72
2023-04-25T04:27:58.463Z,3.97
2023-04-25T04:29:39.798Z,3.95
2023-04-25T04:31:21.099Z,4.32
2023-04-25T04:33:02.448Z,4.19
2023-04-25T04:34:43.847Z,4.19
2023-04-25T04:36:25.135Z,4.21
2023-04-25T04:38:06.402Z,4.22
2023-04-25T04:39:47.728Z,4.37
2023-04-25T04:41:29.022Z,4.30
2023-04-25T04:43:10.358Z,4.28
2023-04-25T04:44:51.724Z,4.34
2023-04-25T04:46:33.037Z,4.29
2023-04-25T04:48:14.312Z,4.56
2023-04-25T04:49:55.601Z,4.64
2023-04-25T04:51:36.910Z,4.71
2023-04-25T04:53:18.206Z,4.97
2023-04-25T04:54:59.516Z,4.75
2023-04-25T04:56:40.784Z,4.51
2023-04-25T04:58:22.079Z,4.39
2023-04-25T05:00:03.375Z,4.41
2023-04-25T05:01:44.809Z,4.43
2023-04-25T05:03:26.191Z,4.59
2023-04-25T05:05:07.595Z,4.46
2023-04-25T05:06:49.236Z,4.63
2023-04-25T05:08:30.659Z,4.12
2023-04-25T05:10:11.907Z,3.47
2023-04-25T05:11:53.172Z,2.92
2023-04-25T05:13:34.466Z,2.29
2023-04-25T05:15:15.760Z,2.88
2023-04-25T05:16:57.158Z,2.71
2023-04-25T05:18:38.574Z,2.65
2023-04-25T05:20:19.858Z,2.72
2023-04-25T05:22:01.139Z,2.38
2023-04-25T05:23:42.444Z,2.23
2023-04-25T05:25:23.718Z,2.54
2023-04-25T05:27:05.067Z,2.40
2023-04-25T05:28:46.372Z,2.95
2023-04-25T05:30:27.669Z,3.18
2023-04-25T05:32:09.046Z,3.36
2023-04-25T05:33:50.616Z,3.61
2023-04-25T05:35:32.208Z,3.97
2023-04-25T05:37:13.527Z,4.23
2023-04-25T05:38:54.820Z,4.20
2023-04-25T05:40:36.135Z,4.19
2023-04-25T05:42:17.426Z,4.19
2023-04-25T05:43:58.877Z,4.01
2023-04-25T05:45:40.442Z,4.06
2023-04-25T05:47:21.762Z,4.20
2023-04-25T05:49:03.071Z,4.15
2023-04-25T05:50:44.400Z,4.24
2023-04-25T05:52:25.712Z,4.25
2023-04-25T05:54:07.056Z,4.22
2023-04-25T05:55:48.357Z,3.88
2023-04-25T05:57:29.704Z,3.71
2023-04-25T05:59:11.010Z,3.88
2023-04-25T06:00:52.289Z,4.02
2023-04-25T06:02:33.727Z,3.84
2023-04-25T06:04:15.206Z,3.88
2023-04-25T06:05:56.930Z,4.06
2023-04-25T06:07:38.315Z,3.69
2023-04-25T06:09:19.602Z,3.84
2023-04-25T06:11:00.903Z,3.95
2023-04-25T06:12:42.175Z,3.81
2023-04-25T06:14:27.204Z,3.67
2023-04-25T06:16:09.613Z,3.99
2023-04-25T06:17:50.968Z,3.88
2023-04-25T06:19:32.271Z,3.34
2023-04-25T06:21:13.573Z,3.51
2023-04-25T06:22:54.990Z,3.65
2023-04-25T06:24:36.323Z,3.78
2023-04-25T06:26:17.599Z,4.00
2023-04-25T06:27:58.926Z,4.14
2023-04-25T06:29:40.236Z,4.28
2023-04-25T06:31:21.548Z,3.94
2023-04-25T06:33:02.922Z,4.11
2023-04-25T06:34:44.259Z,4.36
2023-04-25T06:36:25.551Z,4.33
2023-04-25T06:38:06.896Z,4.36
2023-04-25T06:39:48.229Z,4.38
2023-04-25T06:41:29.526Z,3.86
2023-04-25T06:43:10.826Z,4.02
2023-04-25T06:44:52.181Z,4.12
2023-04-25T06:46:33.498Z,3.85
2023-04-25T06:48:14.787Z,3.60
2023-04-25T06:49:56.126Z,3.92
2023-04-25T06:51:37.430Z,4.29
2023-04-25T06:53:18.744Z,4.22
2023-04-25T06:55:00.039Z,4.15
2023-04-25T06:56:41.309Z,4.23
2023-04-25T06:58:22.594Z,4.10
2023-04-25T07:00:03.903Z,4.23
2023-04-25T07:01:45.286Z,4.30
2023-04-25T07:03:26.726Z,4.07
2023-04-25T07:05:08.180Z,4.49
2023-04-25T07:06:49.472Z,4.83
2023-04-25T07:08:30.805Z,5.17
2023-04-25T07:10:12.126Z,5.44
2023-04-25T07:11:53.393Z,4.87
2023-04-25T07:13:34.646Z,4.49
2023-04-25T07:15:15.948Z,4.78
2023-04-25T07:16:57.347Z,4.74
2023-04-25T07:18:38.730Z,5.01
2023-04-25T07:20:20.043Z,5.21
2023-04-25T07:22:01.396Z,5.30
2023-04-25T07:23:42.665Z,5.44
2023-04-25T07:25:23.967Z,5.59
2023-04-25T07:27:05.279Z,5.49
2023-04-25T07:28:46.573Z,5.50
2023-04-25T07:30:28.080Z,5.48
2023-04-25T07:32:09.474Z,5.73
2023-04-25T07:33:50.822Z,5.76
2023-04-25T07:35:32.258Z,5.68
2023-04-25T07:37:13.558Z,5.70
2023-04-25T07:38:54.869Z,5.29
2023-04-25T07:40:36.167Z,5.33
2023-04-25T07:42:17.509Z,5.39
2023-04-25T07:43:58.819Z,5.31
2023-04-25T07:45:40.134Z,5.26
2023-04-25T07:47:21.514Z,4.99
2023-04-25T07:49:02.840Z,5.06
2023-04-25T07:50:44.156Z,4.97
2023-04-25T07:52:25.425Z,4.85
2023-04-25T07:54:06.760Z,5.01
2023-04-25T07:55:48.078Z,5.41
2023-04-25T07:57:29.423Z,6.20
2023-04-25T07:59:10.721Z,6.60
2023-04-25T08:00:52.005Z,6.33
2023-04-25T08:02:33.508Z,5.69
2023-04-25T08:04:14.974Z,5.68
2023-04-25T08:05:56.527Z,5.99
2023-04-25T08:07:37.881Z,6.09
2023-04-25T08:09:19.186Z,5.84
2023-04-25T08:11:00.547Z,5.72
2023-04-25T08:12:42.158Z,6.02
2023-04-25T08:14:23.493Z,6.05
2023-04-25T08:16:04.837Z,5.93
2023-04-25T08:17:46.190Z,5.87
2023-04-25T08:19:27.475Z,6.08
2023-04-25T08:21:08.808Z,5.63
2023-04-25T08:22:50.122Z,4.88
2023-04-25T08:24:31.417Z,5.33
2023-04-25T08:26:12.720Z,5.05
2023-04-25T08:27:54.037Z,5.17
2023-04-25T08:29:35.334Z,5.53
2023-04-25T08:31:16.645Z,5.57
2023-04-25T08:32:57.996Z,5.50
2023-04-25T08:34:39.386Z,5.60
2023-04-25T08:36:31.497Z,5.40
2023-04-25T08:38:19.620Z,4.93
2023-04-25T08:40:00.971Z,5.25
2023-04-25T08:41:42.251Z,5.80
2023-04-25T08:43:23.526Z,6.44
2023-04-25T08:45:07.095Z,6.08
2023-04-25T08:46:48.949Z,5.80
2023-04-25T08:48:31.518Z,5.99
2023-04-25T08:50:12.853Z,5.33
2023-04-25T08:51:54.301Z,4.80
2023-04-25T08:53:36.296Z,4.85
2023-04-25T08:55:17.785Z,5.19
2023-04-25T08:56:59.084Z,4.77
2023-04-25T08:58:40.379Z,4.17
2023-04-25T09:00:21.740Z,3.81
2023-04-25T09:02:03.129Z,3.75
2023-04-25T09:03:44.584Z,3.81
2023-04-25T09:05:26.242Z,4.12
2023-04-25T09:07:07.590Z,3.91
2023-04-25T09:08:48.858Z,3.83
2023-04-25T09:10:33.075Z,3.99
2023-04-25T09:12:14.424Z,3.69
2023-04-25T09:13:55.780Z,3.78
2023-04-25T09:15:37.074Z,4.28
2023-04-25T09:17:18.359Z,4.43
2023-04-25T09:18:59.670Z,3.62
2023-04-25T09:22:26.788Z,2.77
2023-04-25T09:24:08.103Z,2.74
2023-04-25T09:25:49.370Z,2.36
2023-04-25T09:27:30.696Z,2.55
2023-04-25T09:29:12.019Z,3.10
2023-04-25T09:30:53.329Z,3.47
2023-04-25T09:32:34.827Z,3.35
2023-04-25T09:34:16.163Z,2.94
2023-04-25T09:35:57.482Z,3.09
2023-04-25T09:37:38.853Z,3.32
2023-04-25T09:39:20.232Z,3.60
2023-04-25T09:41:01.538Z,3.15
2023-04-25T09:42:42.862Z,3.04
2023-04-25T09:44:24.197Z,3.42
2023-04-25T09:46:05.536Z,4.00
2023-04-25T09:47:46.875Z,4.28
2023-04-25T09:49:28.178Z,4.30
2023-04-25T09:51:09.517Z,4.21
2023-04-25T09:52:50.788Z,4.63
2023-04-25T09:54:32.069Z,4.59
2023-04-25T09:56:13.381Z,4.45
2023-04-25T09:57:54.708Z,4.04
2023-04-25T09:59:36.001Z,3.83
2023-04-25T10:01:17.401Z,3.68
2023-04-25T10:02:58.797Z,3.70
2023-04-25T10:04:40.345Z,4.89
2023-04-25T10:06:21.730Z,5.14
2023-04-25T10:08:02.992Z,5.31
2023-04-25T10:09:44.248Z,5.38
2023-04-25T10:11:25.654Z,5.40
2023-04-25T10:13:06.974Z,5.24
2023-04-25T10:14:48.340Z,5.58
2023-04-25T10:16:29.813Z,6.39
2023-04-25T10:18:11.327Z,6.64
2023-04-25T10:19:52.676Z,6.77
2023-04-25T10:21:33.964Z,6.34
2023-04-25T10:23:15.306Z,6.41
2023-04-25T10:24:56.640Z,6.66
2023-04-25T10:26:37.937Z,6.49
2023-04-25T10:28:19.306Z,6.46
2023-04-25T10:30:00.599Z,6.97
2023-04-25T10:31:41.977Z,7.24
2023-04-25T10:33:23.460Z,7.28
2023-04-25T10:35:04.756Z,7.59
2023-04-25T10:36:46.036Z,7.93
2023-04-25T10:38:27.309Z,8.10
2023-04-25T10:40:08.581Z,7.90
2023-04-25T10:41:49.887Z,7.87
2023-04-25T10:43:31.193Z,8.18
2023-04-25T10:45:12.489Z,8.30
2023-04-25T10:46:53.809Z,8.23
2023-04-25T10:48:35.201Z,7.76
2023-04-25T10:50:16.517Z,7.39
2023-04-25T10:51:57.886Z,7.62
2023-04-25T10:53:39.202Z,7.47
2023-04-25T10:55:20.860Z,7.46
2023-04-25T10:57:02.195Z,6.95
2023-04-25T10:58:43.484Z,7.27
2023-04-25T11:00:25.860Z,6.92
2023-04-25T11:02:12.189Z,6.98
2023-04-25T11:03:53.719Z,7.57
2023-04-25T11:05:43.769Z,7.67
2023-04-25T11:07:32.520Z,8.17
2023-04-25T11:09:13.850Z,7.99
2023-04-25T11:10:55.157Z,7.62
2023-04-25T11:12:36.450Z,7.96
2023-04-25T11:14:17.892Z,8.34
2023-04-25T11:16:07.388Z,8.50
2023-04-25T11:17:54.588Z,8.75
2023-04-25T11:19:35.949Z,9.10
2023-04-25T11:21:17.252Z,8.79
2023-04-25T11:22:58.544Z,8.86
2023-04-25T11:24:39.890Z,9.09
2023-04-25T11:26:21.211Z,8.92
2023-04-25T11:28:02.562Z,9.16
2023-04-25T11:29:43.899Z,9.16
2023-04-25T11:31:25.979Z,9.09
2023-04-25T11:33:07.740Z,9.30
2023-04-25T11:34:49.090Z,9.25
2023-04-25T11:36:30.423Z,8.98
2023-04-25T11:38:11.975Z,8.76
2023-04-25T11:39:53.651Z,8.85
2023-04-25T11:41:35.146Z,8.53
2023-04-25T11:43:16.797Z,8.36
2023-04-25T11:44:58.436Z,8.09
2023-04-25T11:46:39.814Z,7.60
2023-04-25T11:48:22.147Z,7.54
2023-04-25T11:50:07.706Z,7.44
2023-04-25T11:51:49.000Z,7.69
2023-04-25T11:53:30.290Z,7.59
2023-04-25T11:55:11.737Z,7.57
2023-04-25T11:56:53.069Z,7.32
2023-04-25T11:58:34.921Z,7.34
2023-04-25T12:00:18.661Z,7.42
2023-04-25T12:02:00.496Z,7.30
2023-04-25T12:03:41.885Z,6.86
2023-04-25T12:07:09.781Z,7.30
2023-04-25T12:08:51.477Z,7.18
2023-04-25T12:10:32.947Z,7.18
2023-04-25T12:12:14.270Z,7.15
2023-04-25T12:13:55.640Z,7.04
2023-04-25T12:15:36.947Z,6.69
2023-04-25T12:17:18.235Z,6.57
2023-04-25T12:18:59.787Z,6.10
2023-04-25T12:20:41.297Z,5.76
2023-04-25T12:22:22.812Z,5.66
2023-04-25T12:24:04.364Z,5.28
2023-04-25T12:25:45.896Z,5.41
2023-04-25T12:27:27.380Z,5.42
2023-04-25T12:29:08.932Z,4.87
2023-04-25T12:30:50.427Z,4.95
2023-04-25T12:32:32.065Z,4.98
2023-04-25T12:34:13.681Z,5.04
2023-04-25T12:35:55.082Z,5.69
2023-04-25T12:37:36.594Z,6.02
2023-04-25T12:39:18.146Z,6.30
2023-04-25T12:40:59.627Z,6.44
2023-04-25T12:42:41.081Z,6.99
2023-04-25T12:44:22.435Z,7.10
2023-04-25T12:46:03.698Z,7.00
2023-04-25T12:47:45.736Z,6.39
2023-04-25T12:49:27.280Z,6.59
2023-04-25T12:51:08.780Z,7.05
2023-04-25T12:52:50.478Z,6.90
2023-04-25T12:54:32.019Z,6.67
2023-04-25T12:56:13.463Z,6.76
2023-04-25T12:57:54.945Z,7.16
2023-04-25T12:59:36.244Z,7.17
2023-04-25T13:01:17.537Z,7.12
2023-04-25T13:02:59.189Z,7.06
2023-04-25T13:04:40.747Z,6.85
2023-04-25T13:06:22.066Z,6.32
2023-04-25T13:08:03.379Z,6.21
2023-04-25T13:09:44.701Z,6.77
2023-04-25T13:11:25.993Z,6.92
2023-04-25T13:13:07.909Z,6.28
2023-04-25T13:14:49.587Z,6.25
2023-04-25T13:16:31.153Z,6.44
2023-04-25T13:18:12.607Z,6.21
2023-04-25T13:19:53.898Z,6.15
2023-04-25T13:21:35.203Z,6.39
2023-04-25T13:23:16.761Z,6.36
2023-04-25T13:24:58.372Z,6.29
2023-04-25T13:26:39.916Z,6.40
2023-04-25T13:28:21.265Z,5.65
2023-04-25T13:30:02.565Z,5.83
2023-04-25T13:31:43.896Z,5.78
2023-04-25T13:33:25.492Z,5.46
2023-04-25T13:35:09.237Z,5.77
2023-04-25T13:36:52.081Z,5.98
2023-04-25T13:38:33.709Z,6.00
2023-04-25T13:40:15.023Z,6.40
2023-04-25T13:41:56.315Z,6.42
2023-04-25T13:43:37.718Z,7.02
2023-04-25T13:45:19.584Z,7.86
2023-04-25T13:47:02.574Z,7.63
2023-04-25T13:48:44.176Z,7.40
2023-04-25T13:50:25.624Z,7.11
2023-04-25T13:52:07.229Z,7.21
2023-04-25T13:53:48.970Z,7.46
2023-04-25T13:55:30.396Z,7.34
2023-04-25T13:57:11.731Z,7.49
2023-04-25T13:58:53.329Z,7.42
2023-04-25T14:00:34.980Z,7.77
2023-04-25T14:02:16.405Z,7.91
2023-04-25T14:03:57.982Z,7.77
2023-04-25T14:05:39.575Z,7.50
2023-04-25T14:07:21.103Z,7.60
2023-04-25T14:09:02.638Z,7.64
2023-04-25T14:10:44.093Z,7.62
2023-04-25T14:12:25.557Z,7.81
2023-04-25T14:14:07.142Z,7.63
2023-04-25T14:15:48.852Z,7.40
2023-04-25T14:17:30.368Z,7.53
2023-04-25T14:19:11.665Z,7.75
2023-04-25T14:20:52.969Z,8.10
2023-04-25T14:22:34.570Z,8.83
2023-04-25T14:24:16.162Z,8.77
2023-04-25T14:25:57.568Z,8.97
2023-04-25T14:27:38.912Z,8.93
2023-04-25T14:29:20.858Z,9.00
2023-04-25T14:31:02.587Z,8.56
2023-04-25T14:32:44.295Z,8.85
2023-04-25T14:34:25.697Z,8.98
2023-04-25T14:36:07.282Z,8.70
2023-04-25T14:37:48.712Z,8.99
2023-04-25T14:39:29.994Z,9.00
2023-04-25T14:41:11.343Z,8.84
2023-04-25T14:42:52.652Z,8.81
2023-04-25T14:44:33.925Z,8.43
2023-04-25T14:46:15.655Z,8.30
2023-04-25T14:47:57.312Z,8.11
2023-04-25T14:49:38.836Z,7.68
2023-04-25T14:51:20.419Z,7.66
2023-04-25T14:53:01.947Z,7.46
2023-04-25T14:54:43.491Z,7.74
2023-04-25T14:56:25.207Z,7.50
2023-04-25T14:58:06.612Z,7.89
2023-04-25T14:59:47.899Z,7.67
2023-04-25T15:01:29.233Z,6.95
2023-04-25T15:03:11.112Z,6.94
2023-04-25T15:04:52.920Z,6.54
2023-04-25T15:06:34.247Z,6.88
2023-04-25T15:08:15.557Z,6.97
2023-04-25T15:09:56.861Z,6.94
2023-04-25T15:11:38.845Z,6.67
2023-04-25T15:13:20.327Z,6.51
2023-04-25T15:15:01.924Z,6.26
2023-04-25T15:16:43.669Z,6.45
2023-04-25T15:18:25.245Z,6.70
2023-04-25T15:20:06.610Z,6.68
2023-04-25T15:21:48.150Z,6.54
2023-04-25T15:23:29.927Z,6.77
2023-04-25T15:25:11.376Z,6.65
2023-04-25T15:26:52.688Z,6.84
2023-04-25T15:28:33.970Z,6.60
2023-04-25T15:30:15.941Z,6.62
2023-04-25T15:31:57.687Z,6.30
2023-04-25T15:33:39.129Z,6.39
2023-04-25T15:35:20.541Z,6.36
2023-04-25T15:37:01.882Z,6.45
2023-04-25T15:38:43.897Z,6.59
2023-04-25T15:40:25.442Z,6.58
2023-04-25T15:42:06.977Z,6.64
2023-04-25T15:43:49.089Z,6.59
2023-04-25T15:45:31.021Z,6.48
2023-04-25T15:47:12.409Z,6.40
2023-04-25T15:48:53.747Z,6.59
2023-04-25T15:50:36.302Z,7.20
2023-04-25T15:52:17.571Z,7.10
2023-04-25T15:53:59.032Z,6.58
2023-04-25T15:55:40.592Z,6.32
2023-04-25T15:57:22.100Z,6.09
2023-04-25T15:59:03.620Z,6.43
2023-04-25T16:00:44.934Z,6.43
2023-04-25T16:02:26.485Z,6.34
2023-04-25T16:04:08.429Z,6.52
2023-04-25T16:05:50.073Z,6.82
2023-04-25T16:07:31.556Z,6.42
2023-04-25T16:09:13.234Z,6.90
2023-04-25T16:10:54.647Z,6.97
2023-04-25T16:12:35.935Z,6.96
2023-04-25T16:14:17.240Z,6.78
2023-04-25T16:15:58.588Z,6.71
2023-04-25T16:17:39.933Z,6.83
2023-04-25T16:19:22.091Z,6.86
2023-04-25T16:21:03.897Z,6.87
2023-04-25T16:22:45.341Z,7.13
2023-04-25T16:24:26.604Z,7.12
2023-04-25T16:26:08.177Z,6.72
2023-04-25T16:27:49.672Z,6.44
2023-04-25T16:29:31.010Z,6.43
2023-04-25T16:31:12.405Z,6.61
2023-04-25T16:32:53.792Z,6.76
2023-04-25T16:34:35.118Z,6.60
2023-04-25T16:36:17.146Z,6.77
2023-04-25T16:37:58.628Z,6.43
2023-04-25T16:39:40.119Z,6.57
2023-04-25T16:41:21.642Z,6.68
2023-04-25T16:43:02.982Z,6.95
2023-04-25T16:44:44.290Z,6.47
2023-04-25T16:46:25.702Z,6.49
2023-04-25T16:48:07.044Z,6.64
2023-04-25T16:49:48.411Z,6.49
2023-04-25T16:51:29.732Z,6.61
2023-04-25T16:53:11.009Z,6.87
2023-04-25T16:54:52.324Z,6.80
2023-04-25T16:56:33.633Z,6.93
2023-04-25T16:58:15.182Z,6.96
2023-04-25T16:59:56.737Z,6.63
2023-04-25T17:01:38.237Z,6.68
2023-04-25T17:03:19.861Z,6.45
2023-04-25T17:05:01.270Z,6.72
2023-04-25T17:06:42.830Z,6.41
2023-04-25T17:08:24.277Z,6.58
2023-04-25T17:10:05.546Z,6.11
2023-04-25T17:11:46.832Z,6.54
2023-04-25T17:13:30.963Z,6.83
2023-04-25T17:15:12.743Z,6.61
2023-04-25T17:16:54.758Z,6.60
2023-04-25T17:18:36.398Z,6.78
2023-04-25T17:20:17.882Z,7.00
2023-04-25T17:21:59.420Z,6.31
2023-04-25T17:23:40.969Z,6.05
2023-04-25T17:25:22.427Z,5.44
2023-04-25T17:27:03.710Z,4.87
2023-04-25T17:28:45.008Z,4.54
2023-04-25T17:30:26.297Z,4.73
2023-04-25T17:32:07.592Z,4.72
2023-04-25T17:33:48.939Z,4.82
2023-04-25T17:35:30.255Z,4.56
2023-04-25T17:37:11.586Z,4.28
2023-04-25T17:38:53.075Z,4.47
2023-04-25T17:40:34.448Z,4.57
2023-04-25T17:42:15.787Z,5.07
2023-04-25T17:43:57.261Z,5.29
2023-04-25T17:45:39.028Z,5.59
2023-04-25T17:47:20.359Z,5.68
2023-04-25T17:49:01.658Z,5.85
2023-04-25T17:50:43.008Z,6.01
2023-04-25T17:52:24.306Z,6.10
2023-04-25T17:54:06.116Z,6.08
2023-04-25T17:55:47.409Z,5.99
2023-04-25T17:57:28.745Z,6.04
2023-04-25T17:59:10.031Z,6.10
2023-04-25T18:00:51.365Z,6.37
2023-04-25T18:02:32.975Z,6.04
2023-04-25T18:04:14.573Z,6.36
2023-04-25T18:05:55.908Z,6.44
2023-04-25T18:07:37.846Z,6.13
2023-04-25T18:09:19.303Z,6.22
2023-04-25T18:11:00.607Z,6.19
2023-04-25T18:12:42.201Z,6.22
2023-04-25T18:14:23.692Z,6.38
2023-04-25T18:16:05.071Z,6.34
2023-04-25T18:17:46.520Z,6.53
2023-04-25T18:19:27.877Z,6.53
2023-04-25T18:21:09.724Z,6.53
2023-04-25T18:22:51.699Z,6.71
2023-04-25T18:24:33.437Z,6.58
2023-04-25T18:26:14.874Z,6.49
2023-04-25T18:27:56.368Z,6.61
2023-04-25T18:29:37.781Z,6.62
2023-04-25T18:31:19.097Z,6.67
2023-04-25T18:33:00.428Z,6.79
2023-04-25T18:34:42.071Z,6.64
2023-04-25T18:36:23.754Z,6.83
2023-04-25T18:38:05.295Z,6.32
2023-04-25T18:39:46.593Z,5.82
2023-04-25T18:41:52.192Z,5.08
2023-04-25T18:43:29.589Z,4.62
2023-04-25T18:45:10.892Z,4.38
2023-04-25T18:46:52.429Z,3.60
2023-04-25T18:48:33.934Z,3.64
2023-04-25T18:50:15.199Z,3.64
2023-04-25T18:51:56.747Z,3.67
2023-04-25T18:53:38.253Z,3.88
2023-04-25T18:55:19.760Z,4.23
2023-04-25T18:57:01.391Z,4.50
2023-04-25T18:58:42.712Z,4.78
2023-04-25T19:00:24.029Z,4.92
2023-04-25T19:02:05.684Z,4.83
2023-04-25T19:03:47.312Z,4.43
2023-04-25T19:05:29.464Z,4.31
2023-04-25T19:07:11.223Z,4.27
2023-04-25T19:08:53.062Z,4.34
2023-04-25T19:10:34.754Z,4.53
2023-04-25T19:12:16.086Z,3.93
2023-04-25T19:13:57.370Z,3.58
2023-04-25T19:15:38.672Z,3.64
2023-04-25T19:17:20.689Z,3.93
2023-04-25T19:19:02.184Z,3.88
2023-04-25T19:20:43.503Z,3.79
2023-04-25T19:22:24.790Z,3.88
2023-04-25T19:24:06.078Z,3.62
2023-04-25T19:25:47.388Z,3.10
2023-04-25T19:27:28.662Z,3.35
2023-04-25T19:29:10.707Z,3.19
2023-04-25T19:30:52.368Z,3.19
2023-04-25T19:32:33.684Z,3.47
2023-04-25T19:34:15.252Z,3.57
2023-04-25T19:35:56.760Z,3.57
2023-04-25T19:37:38.042Z,3.36
2023-04-25T19:39:19.383Z,2.88
2023-04-25T19:41:00.745Z,2.06
2023-04-25T19:42:42.143Z,1.88
2023-04-25T19:44:23.772Z,1.95
2023-04-25T19:46:05.406Z,1.64
2023-04-25T19:47:46.979Z,0.74
2023-04-25T19:49:28.474Z,1.11
2023-04-25T19:51:09.793Z,1.12
2023-04-25T19:52:51.322Z,1.29
2023-04-25T19:54:33.352Z,1.27
2023-04-25T19:56:14.864Z,1.79
2023-04-25T19:57:56.367Z,1.38
2023-04-25T19:59:37.644Z,1.27
2023-04-25T20:01:18.988Z,1.36
2023-04-25T20:03:00.773Z,1.12
2023-04-25T20:04:42.604Z,1.34
2023-04-25T20:06:24.051Z,1.43
2023-04-25T20:08:05.371Z,1.69
2023-04-25T20:09:46.650Z,1.48
2023-04-25T20:11:28.168Z,1.66
2023-04-25T20:13:09.671Z,2.09
2023-04-25T20:14:50.956Z,2.53
2023-04-25T20:16:32.555Z,2.43
2023-04-25T20:18:14.176Z,2.25
2023-04-25T20:19:55.482Z,2.64
2023-04-25T20:21:37.044Z,2.93
2023-04-25T20:23:18.512Z,3.13
2023-04-25T20:24:59.810Z,3.28
2023-04-25T20:26:41.596Z,3.24
2023-04-25T20:28:23.206Z,3.28
2023-04-25T20:30:04.576Z,2.73
2023-04-25T20:31:45.884Z,2.69
2023-04-25T20:33:27.203Z,3.20
2023-04-25T20:35:08.530Z,2.96
2023-04-25T20:36:49.835Z,2.40
2023-04-25T20:38:31.461Z,2.76
2023-04-25T20:40:13.234Z,3.05
2023-04-25T20:41:54.597Z,3.29
2023-04-25T20:43:36.170Z,3.26
2023-04-25T20:45:17.801Z,3.13
2023-04-25T20:46:59.310Z,2.08
2023-04-25T20:48:40.768Z,2.27
2023-04-25T20:50:22.093Z,2.33
2023-04-25T20:52:03.374Z,2.39
2023-04-25T20:53:44.893Z,2.39
2023-04-25T20:55:26.467Z,2.41
2023-04-25T20:57:07.797Z,2.79
2023-04-25T20:58:49.145Z,2.81
2023-04-25T21:00:30.435Z,2.51
2023-04-25T21:02:11.801Z,2.60
2023-04-25T21:03:53.643Z,1.81
2023-04-25T21:05:35.469Z,1.32
2023-04-25T21:07:16.919Z,0.85
2023-04-25T21:08:58.238Z,0.27
2023-04-25T21:10:39.778Z,0.21
2023-04-25T21:12:21.290Z,0.00
2023-04-25T21:14:02.601Z,-0.08
2023-04-25T21:15:43.907Z,-0.27
2023-04-25T21:17:25.195Z,0.02
2023-04-25T21:19:06.788Z,0.02
2023-04-25T21:20:48.226Z,0.45
2023-04-25T21:22:29.492Z,0.98
2023-04-25T21:24:11.058Z,1.46
2023-04-25T21:25:52.585Z,1.17
2023-04-25T21:27:33.880Z,0.96
2023-04-25T21:29:15.178Z,0.87
2023-04-25T21:30:56.470Z,1.11
2023-04-25T21:32:38.515Z,1.12
2023-04-25T21:34:20.223Z,1.49
2023-04-25T21:36:01.688Z,1.67
2023-04-25T21:37:42.979Z,2.11
2023-04-25T21:39:24.288Z,2.06
2023-04-25T21:41:05.648Z,1.58
2023-04-25T21:42:47.686Z,1.53
2023-04-25T21:44:29.154Z,1.28
2023-04-25T21:47:54.880Z,0.57
2023-04-25T21:49:36.409Z,1.01
2023-04-25T21:51:17.678Z,0.66
2023-04-25T21:52:59.212Z,0.90
2023-04-25T21:54:40.885Z,1.49
2023-04-25T21:56:22.324Z,1.66
2023-04-25T21:58:03.824Z,1.44
2023-04-25T21:59:45.345Z,1.59
2023-04-25T22:01:26.774Z,1.10
2023-04-25T22:03:08.338Z,0.76
2023-04-25T22:04:49.755Z,0.70
2023-04-25T22:06:31.134Z,0.85
2023-04-25T22:08:13.114Z,0.95
2023-04-25T22:09:55.784Z,1.21
2023-04-25T22:11:37.333Z,1.12
2023-04-25T22:13:18.886Z,1.16
2023-04-25T22:15:00.416Z,1.39
2023-04-25T22:16:42.051Z,1.52
2023-04-25T22:18:23.886Z,1.69
2023-04-25T22:20:05.353Z,1.68
2023-04-25T22:21:46.801Z,1.29
2023-04-25T22:23:28.195Z,0.82
2023-04-25T22:25:09.531Z,0.81
2023-04-25T22:26:50.823Z,0.38
2023-04-25T22:28:32.137Z,0.39
2023-04-25T22:30:13.563Z,0.16
2023-04-25T22:31:55.519Z,0.25
2023-04-25T22:33:37.228Z,0.32
2023-04-25T22:35:18.677Z,0.47
2023-04-25T22:36:59.961Z,0.62